sensor_id;sensor_type;location;lat;lon;timestamp;P1;durP1;ratioP1;P2;durP2;ratioP2
7529;SDS011;3806;52.270;10.544;2024-01-15T00:01:56;13.73;;;6.43;;
7529;SDS011;3806;52.270;10.544;2024-01-15T00:04:22;14.48;;;7.00;;
7529;SDS011;3806;52.270;10.544;2024-01-15T00:06:49;8.43;;;5.43;;
7529;SDS011;3806;52.270;10.544;2024-01-15T00:09:14;14.88;;;6.45;;
7529;SDS011;3806;52.270;10.544;2024-01-15T00:11:41;11.38;;;6.18;;
7529;SDS011;3806;52.270;10.544;2024-01-15T00:14:08;10.80;;;6.07;;
7529;SDS011;3806;52.270;10.544;2024-01-15T00:16:34;13.32;;;6.53;;
7529;SDS011;3806;52.270;10.544;2024-01-15T00:19:00;12.75;;;5.63;;
7529;SDS011;3806;52.270;10.544;2024-01-15T00:21:26;11.18;;;5.63;;
7529;SDS011;3806;52.270;10.544;2024-01-15T00:23:53;11.00;;;5.18;;
7529;SDS011;3806;52.270;10.544;2024-01-15T00:26:19;13.80;;;6.15;;
7529;SDS011;3806;52.270;10.544;2024-01-15T00:28:45;11.75;;;5.68;;
7529;SDS011;3806;52.270;10.544;2024-01-15T00:31:11;11.13;;;6.60;;
7529;SDS011;3806;52.270;10.544;2024-01-15T00:33:36;9.50;;;6.00;;
7529;SDS011;3806;52.270;10.544;2024-01-15T00:36:02;12.20;;;6.43;;
7529;SDS011;3806;52.270;10.544;2024-01-15T00:38:29;11.10;;;5.82;;
7529;SDS011;3806;52.270;10.544;2024-01-15T00:40:55;12.43;;;5.70;;
7529;SDS011;3806;52.270;10.544;2024-01-15T00:43:20;14.05;;;6.90;;
7529;SDS011;3806;52.270;10.544;2024-01-15T00:45:47;14.18;;;6.20;;
7529;SDS011;3806;52.270;10.544;2024-01-15T00:48:13;11.68;;;5.70;;
7529;SDS011;3806;52.270;10.544;2024-01-15T00:50:39;11.75;;;6.15;;
7529;SDS011;3806;52.270;10.544;2024-01-15T00:53:05;12.65;;;6.55;;
7529;SDS011;3806;52.270;10.544;2024-01-15T00:55:31;11.50;;;6.18;;
7529;SDS011;3806;52.270;10.544;2024-01-15T00:57:57;9.55;;;5.35;;
7529;SDS011;3806;52.270;10.544;2024-01-15T01:00:23;9.32;;;5.00;;
7529;SDS011;3806;52.270;10.544;2024-01-15T01:02:49;8.77;;;4.95;;
7529;SDS011;3806;52.270;10.544;2024-01-15T01:05:15;9.88;;;5.57;;
7529;SDS011;3806;52.270;10.544;2024-01-15T01:07:41;8.75;;;5.15;;
7529;SDS011;3806;52.270;10.544;2024-01-15T01:10:06;9.77;;;4.18;;
7529;SDS011;3806;52.270;10.544;2024-01-15T01:12:33;8.38;;;4.70;;
7529;SDS011;3806;52.270;10.544;2024-01-15T01:14:59;8.32;;;4.88;;
7529;SDS011;3806;52.270;10.544;2024-01-15T01:17:25;7.75;;;4.32;;
7529;SDS011;3806;52.270;10.544;2024-01-15T01:19:50;9.32;;;4.95;;
7529;SDS011;3806;52.270;10.544;2024-01-15T01:22:17;10.55;;;4.63;;
7529;SDS011;3806;52.270;10.544;2024-01-15T01:24:43;7.53;;;4.15;;
7529;SDS011;3806;52.270;10.544;2024-01-15T01:27:09;7.03;;;3.85;;
7529;SDS011;3806;52.270;10.544;2024-01-15T01:29:35;7.78;;;3.97;;
7529;SDS011;3806;52.270;10.544;2024-01-15T01:32:01;8.20;;;3.90;;
7529;SDS011;3806;52.270;10.544;2024-01-15T01:34:26;8.15;;;3.50;;
7529;SDS011;3806;52.270;10.544;2024-01-15T01:36:53;7.35;;;4.00;;
7529;SDS011;3806;52.270;10.544;2024-01-15T01:39:19;9.38;;;5.18;;
7529;SDS011;3806;52.270;10.544;2024-01-15T01:41:45;6.90;;;3.80;;
7529;SDS011;3806;52.270;10.544;2024-01-15T01:44:10;6.47;;;3.78;;
7529;SDS011;3806;52.270;10.544;2024-01-15T01:46:37;7.22;;;4.63;;
7529;SDS011;3806;52.270;10.544;2024-01-15T01:49:06;7.50;;;3.40;;
7529;SDS011;3806;52.270;10.544;2024-01-15T01:51:34;6.28;;;3.53;;
7529;SDS011;3806;52.270;10.544;2024-01-15T01:54:01;5.20;;;3.08;;
7529;SDS011;3806;52.270;10.544;2024-01-15T01:56:26;7.63;;;3.58;;
7529;SDS011;3806;52.270;10.544;2024-01-15T01:58:53;8.23;;;4.10;;
7529;SDS011;3806;52.270;10.544;2024-01-15T02:01:19;7.63;;;4.10;;
7529;SDS011;3806;52.270;10.544;2024-01-15T02:03:46;8.90;;;4.38;;
7529;SDS011;3806;52.270;10.544;2024-01-15T02:06:12;6.55;;;4.30;;
7529;SDS011;3806;52.270;10.544;2024-01-15T02:08:38;6.45;;;2.88;;
7529;SDS011;3806;52.270;10.544;2024-01-15T02:11:05;5.78;;;3.15;;
7529;SDS011;3806;52.270;10.544;2024-01-15T02:13:31;8.20;;;3.63;;
7529;SDS011;3806;52.270;10.544;2024-01-15T02:15:56;4.50;;;2.70;;
7529;SDS011;3806;52.270;10.544;2024-01-15T02:18:22;5.82;;;3.78;;
7529;SDS011;3806;52.270;10.544;2024-01-15T02:20:48;7.65;;;3.40;;
7529;SDS011;3806;52.270;10.544;2024-01-15T02:23:14;4.90;;;3.05;;
7529;SDS011;3806;52.270;10.544;2024-01-15T02:25:44;11.40;;;3.72;;
7529;SDS011;3806;52.270;10.544;2024-01-15T02:28:16;5.95;;;2.97;;
7529;SDS011;3806;52.270;10.544;2024-01-15T02:30:43;6.07;;;3.33;;
7529;SDS011;3806;52.270;10.544;2024-01-15T02:33:10;5.43;;;2.67;;
7529;SDS011;3806;52.270;10.544;2024-01-15T02:35:36;7.38;;;2.72;;
7529;SDS011;3806;52.270;10.544;2024-01-15T02:38:03;10.10;;;3.08;;
7529;SDS011;3806;52.270;10.544;2024-01-15T02:40:29;7.05;;;2.75;;
7529;SDS011;3806;52.270;10.544;2024-01-15T02:42:55;3.90;;;2.28;;
7529;SDS011;3806;52.270;10.544;2024-01-15T02:45:21;4.97;;;2.67;;
7529;SDS011;3806;52.270;10.544;2024-01-15T02:47:47;6.10;;;2.13;;
7529;SDS011;3806;52.270;10.544;2024-01-15T02:50:14;8.63;;;2.40;;
7529;SDS011;3806;52.270;10.544;2024-01-15T02:52:41;4.72;;;2.03;;
7529;SDS011;3806;52.270;10.544;2024-01-15T02:55:07;5.95;;;2.05;;
7529;SDS011;3806;52.270;10.544;2024-01-15T02:57:34;4.72;;;2.22;;
7529;SDS011;3806;52.270;10.544;2024-01-15T03:00:00;4.03;;;2.30;;
7529;SDS011;3806;52.270;10.544;2024-01-15T03:02:26;3.72;;;2.15;;
7529;SDS011;3806;52.270;10.544;2024-01-15T03:04:51;4.78;;;1.95;;
7529;SDS011;3806;52.270;10.544;2024-01-15T03:07:18;4.38;;;1.90;;
7529;SDS011;3806;52.270;10.544;2024-01-15T03:09:44;4.95;;;1.95;;
7529;SDS011;3806;52.270;10.544;2024-01-15T03:12:10;6.10;;;1.85;;
7529;SDS011;3806;52.270;10.544;2024-01-15T03:14:37;5.22;;;1.92;;
7529;SDS011;3806;52.270;10.544;2024-01-15T03:17:03;7.55;;;2.47;;
7529;SDS011;3806;52.270;10.544;2024-01-15T03:19:28;7.22;;;2.53;;
7529;SDS011;3806;52.270;10.544;2024-01-15T03:21:56;4.90;;;1.90;;
7529;SDS011;3806;52.270;10.544;2024-01-15T03:24:22;5.28;;;1.80;;
7529;SDS011;3806;52.270;10.544;2024-01-15T03:26:48;4.95;;;2.15;;
7529;SDS011;3806;52.270;10.544;2024-01-15T03:29:14;4.40;;;2.17;;
7529;SDS011;3806;52.270;10.544;2024-01-15T03:31:40;6.22;;;2.00;;
7529;SDS011;3806;52.270;10.544;2024-01-15T03:34:05;6.40;;;2.10;;
7529;SDS011;3806;52.270;10.544;2024-01-15T03:36:32;5.15;;;1.60;;
7529;SDS011;3806;52.270;10.544;2024-01-15T03:38:58;6.45;;;2.08;;
7529;SDS011;3806;52.270;10.544;2024-01-15T03:41:24;4.18;;;2.33;;
7529;SDS011;3806;52.270;10.544;2024-01-15T03:43:50;3.15;;;1.55;;
7529;SDS011;3806;52.270;10.544;2024-01-15T03:46:16;3.05;;;1.88;;
7529;SDS011;3806;52.270;10.544;2024-01-15T03:48:42;3.67;;;1.17;;
7529;SDS011;3806;52.270;10.544;2024-01-15T03:51:08;9.23;;;2.58;;
7529;SDS011;3806;52.270;10.544;2024-01-15T03:53:34;2.33;;;1.20;;
7529;SDS011;3806;52.270;10.544;2024-01-15T03:56:00;8.10;;;2.10;;
7529;SDS011;3806;52.270;10.544;2024-01-15T03:58:26;3.03;;;1.15;;
7529;SDS011;3806;52.270;10.544;2024-01-15T04:00:51;8.65;;;1.83;;
7529;SDS011;3806;52.270;10.544;2024-01-15T04:03:17;5.43;;;1.70;;
7529;SDS011;3806;52.270;10.544;2024-01-15T04:05:43;8.80;;;1.58;;
7529;SDS011;3806;52.270;10.544;2024-01-15T04:08:09;4.82;;;1.50;;
7529;SDS011;3806;52.270;10.544;2024-01-15T04:10:35;7.60;;;1.63;;
7529;SDS011;3806;52.270;10.544;2024-01-15T04:13:01;3.65;;;1.65;;
7529;SDS011;3806;52.270;10.544;2024-01-15T04:15:28;2.65;;;2.22;;
7529;SDS011;3806;52.270;10.544;2024-01-15T04:17:54;4.18;;;1.58;;
7529;SDS011;3806;52.270;10.544;2024-01-15T04:20:20;4.75;;;2.22;;
7529;SDS011;3806;52.270;10.544;2024-01-15T04:22:46;4.50;;;1.88;;
7529;SDS011;3806;52.270;10.544;2024-01-15T04:25:11;11.85;;;2.47;;
7529;SDS011;3806;52.270;10.544;2024-01-15T04:27:38;4.88;;;1.58;;
7529;SDS011;3806;52.270;10.544;2024-01-15T04:30:04;5.05;;;2.00;;
7529;SDS011;3806;52.270;10.544;2024-01-15T04:32:31;3.75;;;1.60;;
7529;SDS011;3806;52.270;10.544;2024-01-15T04:34:56;2.58;;;1.55;;
7529;SDS011;3806;52.270;10.544;2024-01-15T04:37:23;6.95;;;1.70;;
7529;SDS011;3806;52.270;10.544;2024-01-15T04:39:49;4.75;;;1.60;;
7529;SDS011;3806;52.270;10.544;2024-01-15T04:42:18;7.03;;;1.38;;
7529;SDS011;3806;52.270;10.544;2024-01-15T04:44:44;5.03;;;2.47;;
7529;SDS011;3806;52.270;10.544;2024-01-15T04:47:10;3.10;;;1.40;;
7529;SDS011;3806;52.270;10.544;2024-01-15T04:49:36;6.88;;;2.17;;
7529;SDS011;3806;52.270;10.544;2024-01-15T04:52:01;8.15;;;2.17;;
7529;SDS011;3806;52.270;10.544;2024-01-15T04:54:28;6.05;;;2.08;;
7529;SDS011;3806;52.270;10.544;2024-01-15T04:56:54;4.25;;;1.65;;
7529;SDS011;3806;52.270;10.544;2024-01-15T04:59:20;2.55;;;1.13;;
7529;SDS011;3806;52.270;10.544;2024-01-15T05:01:46;4.15;;;1.65;;
7529;SDS011;3806;52.270;10.544;2024-01-15T05:04:13;5.57;;;1.40;;
7529;SDS011;3806;52.270;10.544;2024-01-15T05:06:39;2.55;;;1.17;;
7529;SDS011;3806;52.270;10.544;2024-01-15T05:09:05;6.80;;;1.90;;
7529;SDS011;3806;52.270;10.544;2024-01-15T05:11:31;2.67;;;1.17;;
7529;SDS011;3806;52.270;10.544;2024-01-15T05:13:56;4.85;;;1.40;;
7529;SDS011;3806;52.270;10.544;2024-01-15T05:16:22;7.38;;;2.28;;
7529;SDS011;3806;52.270;10.544;2024-01-15T05:18:47;1.92;;;1.10;;
7529;SDS011;3806;52.270;10.544;2024-01-15T05:21:13;5.93;;;1.40;;
7529;SDS011;3806;52.270;10.544;2024-01-15T05:23:38;8.45;;;1.55;;
7529;SDS011;3806;52.270;10.544;2024-01-15T05:26:04;5.05;;;1.17;;
7529;SDS011;3806;52.270;10.544;2024-01-15T05:28:29;11.70;;;1.73;;
7529;SDS011;3806;52.270;10.544;2024-01-15T05:30:55;4.55;;;1.55;;
7529;SDS011;3806;52.270;10.544;2024-01-15T05:33:21;6.35;;;2.20;;
7529;SDS011;3806;52.270;10.544;2024-01-15T05:35:50;6.25;;;1.58;;
7529;SDS011;3806;52.270;10.544;2024-01-15T05:38:16;3.60;;;1.23;;
7529;SDS011;3806;52.270;10.544;2024-01-15T05:40:43;3.38;;;1.70;;
7529;SDS011;3806;52.270;10.544;2024-01-15T05:43:09;4.53;;;1.52;;
7529;SDS011;3806;52.270;10.544;2024-01-15T05:45:37;13.70;;;2.72;;
7529;SDS011;3806;52.270;10.544;2024-01-15T05:48:03;5.68;;;1.30;;
7529;SDS011;3806;52.270;10.544;2024-01-15T05:50:30;9.20;;;1.70;;
7529;SDS011;3806;52.270;10.544;2024-01-15T05:52:56;2.65;;;1.73;;
7529;SDS011;3806;52.270;10.544;2024-01-15T05:55:21;4.35;;;1.90;;
7529;SDS011;3806;52.270;10.544;2024-01-15T05:57:47;3.67;;;1.95;;
7529;SDS011;3806;52.270;10.544;2024-01-15T06:00:13;5.05;;;1.45;;
7529;SDS011;3806;52.270;10.544;2024-01-15T06:02:40;3.47;;;1.50;;
7529;SDS011;3806;52.270;10.544;2024-01-15T06:05:08;2.63;;;1.95;;
7529;SDS011;3806;52.270;10.544;2024-01-15T06:07:37;4.82;;;1.55;;
7529;SDS011;3806;52.270;10.544;2024-01-15T06:10:05;5.18;;;1.27;;
7529;SDS011;3806;52.270;10.544;2024-01-15T06:12:31;5.53;;;2.05;;
7529;SDS011;3806;52.270;10.544;2024-01-15T06:14:59;3.88;;;1.30;;
7529;SDS011;3806;52.270;10.544;2024-01-15T06:17:28;5.80;;;1.45;;
7529;SDS011;3806;52.270;10.544;2024-01-15T06:19:58;3.13;;;1.55;;
7529;SDS011;3806;52.270;10.544;2024-01-15T06:22:29;1.40;;;1.15;;
7529;SDS011;3806;52.270;10.544;2024-01-15T06:24:57;2.45;;;1.65;;
7529;SDS011;3806;52.270;10.544;2024-01-15T06:27:29;4.35;;;2.30;;
7529;SDS011;3806;52.270;10.544;2024-01-15T06:29:54;3.92;;;1.85;;
7529;SDS011;3806;52.270;10.544;2024-01-15T06:32:21;2.83;;;1.35;;
7529;SDS011;3806;52.270;10.544;2024-01-15T06:34:46;6.65;;;2.50;;
7529;SDS011;3806;52.270;10.544;2024-01-15T06:37:12;6.32;;;2.15;;
7529;SDS011;3806;52.270;10.544;2024-01-15T06:39:38;3.20;;;2.10;;
7529;SDS011;3806;52.270;10.544;2024-01-15T06:42:04;5.00;;;2.35;;
7529;SDS011;3806;52.270;10.544;2024-01-15T06:44:30;8.30;;;2.55;;
7529;SDS011;3806;52.270;10.544;2024-01-15T06:46:56;4.93;;;2.33;;
7529;SDS011;3806;52.270;10.544;2024-01-15T06:49:27;10.07;;;2.20;;
7529;SDS011;3806;52.270;10.544;2024-01-15T06:51:54;5.20;;;2.03;;
7529;SDS011;3806;52.270;10.544;2024-01-15T06:54:20;2.88;;;1.85;;
7529;SDS011;3806;52.270;10.544;2024-01-15T06:56:45;6.68;;;1.75;;
7529;SDS011;3806;52.270;10.544;2024-01-15T06:59:11;6.80;;;2.30;;
7529;SDS011;3806;52.270;10.544;2024-01-15T07:01:42;3.17;;;2.13;;
7529;SDS011;3806;52.270;10.544;2024-01-15T07:04:22;6.50;;;2.25;;
7529;SDS011;3806;52.270;10.544;2024-01-15T07:06:47;3.65;;;1.77;;
7529;SDS011;3806;52.270;10.544;2024-01-15T07:09:13;3.60;;;1.60;;
7529;SDS011;3806;52.270;10.544;2024-01-15T07:11:43;5.95;;;1.77;;
7529;SDS011;3806;52.270;10.544;2024-01-15T07:14:10;6.50;;;2.15;;
7529;SDS011;3806;52.270;10.544;2024-01-15T07:16:36;5.45;;;2.13;;
7529;SDS011;3806;52.270;10.544;2024-01-15T07:19:01;5.45;;;1.90;;
7529;SDS011;3806;52.270;10.544;2024-01-15T07:21:27;3.63;;;1.42;;
7529;SDS011;3806;52.270;10.544;2024-01-15T07:23:52;3.78;;;2.30;;
7529;SDS011;3806;52.270;10.544;2024-01-15T07:26:18;7.43;;;2.08;;
7529;SDS011;3806;52.270;10.544;2024-01-15T07:28:44;2.88;;;1.85;;
7529;SDS011;3806;52.270;10.544;2024-01-15T07:31:09;4.38;;;1.80;;
7529;SDS011;3806;52.270;10.544;2024-01-15T07:33:35;4.60;;;2.25;;
7529;SDS011;3806;52.270;10.544;2024-01-15T07:36:00;5.30;;;2.75;;
7529;SDS011;3806;52.270;10.544;2024-01-15T07:38:27;5.90;;;2.05;;
7529;SDS011;3806;52.270;10.544;2024-01-15T07:40:53;3.75;;;2.05;;
7529;SDS011;3806;52.270;10.544;2024-01-15T07:43:19;7.25;;;2.10;;
7529;SDS011;3806;52.270;10.544;2024-01-15T07:45:44;7.53;;;2.10;;
7529;SDS011;3806;52.270;10.544;2024-01-15T07:48:10;13.90;;;2.25;;
7529;SDS011;3806;52.270;10.544;2024-01-15T07:50:36;4.22;;;2.03;;
7529;SDS011;3806;52.270;10.544;2024-01-15T07:53:01;6.15;;;1.95;;
7529;SDS011;3806;52.270;10.544;2024-01-15T07:55:27;5.07;;;1.90;;
7529;SDS011;3806;52.270;10.544;2024-01-15T07:57:53;5.22;;;2.10;;
7529;SDS011;3806;52.270;10.544;2024-01-15T08:00:23;4.35;;;1.50;;
7529;SDS011;3806;52.270;10.544;2024-01-15T08:02:49;7.20;;;2.35;;
7529;SDS011;3806;52.270;10.544;2024-01-15T08:05:15;4.75;;;2.13;;
7529;SDS011;3806;52.270;10.544;2024-01-15T08:07:41;5.97;;;1.65;;
7529;SDS011;3806;52.270;10.544;2024-01-15T08:10:06;4.80;;;1.95;;
7529;SDS011;3806;52.270;10.544;2024-01-15T08:12:32;4.43;;;2.22;;
7529;SDS011;3806;52.270;10.544;2024-01-15T08:14:58;5.95;;;1.70;;
7529;SDS011;3806;52.270;10.544;2024-01-15T08:17:23;7.40;;;2.03;;
7529;SDS011;3806;52.270;10.544;2024-01-15T08:19:53;8.65;;;2.83;;
7529;SDS011;3806;52.270;10.544;2024-01-15T08:22:19;3.78;;;1.38;;
7529;SDS011;3806;52.270;10.544;2024-01-15T08:24:44;6.45;;;2.03;;
7529;SDS011;3806;52.270;10.544;2024-01-15T08:27:10;5.50;;;2.42;;
7529;SDS011;3806;52.270;10.544;2024-01-15T08:29:36;4.45;;;1.80;;
7529;SDS011;3806;52.270;10.544;2024-01-15T08:32:01;2.67;;;1.30;;
7529;SDS011;3806;52.270;10.544;2024-01-15T08:34:27;2.25;;;1.70;;
7529;SDS011;3806;52.270;10.544;2024-01-15T08:36:52;3.88;;;2.45;;
7529;SDS011;3806;52.270;10.544;2024-01-15T08:39:18;2.78;;;1.30;;
7529;SDS011;3806;52.270;10.544;2024-01-15T08:41:44;2.00;;;1.60;;
7529;SDS011;3806;52.270;10.544;2024-01-15T08:44:11;2.28;;;1.55;;
7529;SDS011;3806;52.270;10.544;2024-01-15T08:46:37;2.88;;;1.48;;
7529;SDS011;3806;52.270;10.544;2024-01-15T08:49:03;3.22;;;2.05;;
7529;SDS011;3806;52.270;10.544;2024-01-15T08:51:28;3.15;;;1.90;;
7529;SDS011;3806;52.270;10.544;2024-01-15T08:53:55;2.13;;;1.45;;
7529;SDS011;3806;52.270;10.544;2024-01-15T08:56:21;5.30;;;1.55;;
7529;SDS011;3806;52.270;10.544;2024-01-15T08:58:47;3.92;;;2.15;;
7529;SDS011;3806;52.270;10.544;2024-01-15T09:01:12;3.88;;;1.55;;
7529;SDS011;3806;52.270;10.544;2024-01-15T09:03:39;1.67;;;1.42;;
7529;SDS011;3806;52.270;10.544;2024-01-15T09:06:06;4.95;;;1.95;;
7529;SDS011;3806;52.270;10.544;2024-01-15T09:08:32;3.05;;;2.00;;
7529;SDS011;3806;52.270;10.544;2024-01-15T09:10:58;2.92;;;1.70;;
7529;SDS011;3806;52.270;10.544;2024-01-15T09:13:23;3.50;;;1.90;;
7529;SDS011;3806;52.270;10.544;2024-01-15T09:15:49;2.92;;;1.65;;
7529;SDS011;3806;52.270;10.544;2024-01-15T09:18:14;5.47;;;1.50;;
7529;SDS011;3806;52.270;10.544;2024-01-15T09:20:40;2.75;;;1.50;;
7529;SDS011;3806;52.270;10.544;2024-01-15T09:23:05;10.10;;;1.98;;
7529;SDS011;3806;52.270;10.544;2024-01-15T09:25:31;2.75;;;1.35;;
7529;SDS011;3806;52.270;10.544;2024-01-15T09:27:57;2.65;;;1.70;;
7529;SDS011;3806;52.270;10.544;2024-01-15T09:30:23;2.75;;;1.52;;
7529;SDS011;3806;52.270;10.544;2024-01-15T09:32:48;2.53;;;1.10;;
7529;SDS011;3806;52.270;10.544;2024-01-15T09:35:14;2.58;;;1.65;;
7529;SDS011;3806;52.270;10.544;2024-01-15T09:37:40;4.85;;;1.67;;
7529;SDS011;3806;52.270;10.544;2024-01-15T09:40:06;2.25;;;1.75;;
7529;SDS011;3806;52.270;10.544;2024-01-15T09:42:33;2.15;;;1.00;;
7529;SDS011;3806;52.270;10.544;2024-01-15T09:45:00;1.35;;;1.00;;
7529;SDS011;3806;52.270;10.544;2024-01-15T09:47:26;1.95;;;1.27;;
7529;SDS011;3806;52.270;10.544;2024-01-15T09:49:51;2.33;;;1.63;;
7529;SDS011;3806;52.270;10.544;2024-01-15T09:52:17;3.10;;;1.83;;
7529;SDS011;3806;52.270;10.544;2024-01-15T09:54:44;6.18;;;1.23;;
7529;SDS011;3806;52.270;10.544;2024-01-15T09:57:11;1.27;;;1.08;;
7529;SDS011;3806;52.270;10.544;2024-01-15T09:59:36;3.40;;;0.95;;
7529;SDS011;3806;52.270;10.544;2024-01-15T10:02:05;2.67;;;1.35;;
7529;SDS011;3806;52.270;10.544;2024-01-15T10:04:32;3.28;;;1.52;;
7529;SDS011;3806;52.270;10.544;2024-01-15T10:06:57;5.07;;;1.85;;
7529;SDS011;3806;52.270;10.544;2024-01-15T10:09:25;1.52;;;1.42;;
7529;SDS011;3806;52.270;10.544;2024-01-15T10:11:51;5.35;;;1.48;;
7529;SDS011;3806;52.270;10.544;2024-01-15T10:14:17;3.28;;;1.52;;
7529;SDS011;3806;52.270;10.544;2024-01-15T10:16:42;1.95;;;1.48;;
7529;SDS011;3806;52.270;10.544;2024-01-15T10:19:11;3.45;;;1.48;;
7529;SDS011;3806;52.270;10.544;2024-01-15T10:21:36;2.47;;;1.98;;
7529;SDS011;3806;52.270;10.544;2024-01-15T10:24:03;4.03;;;1.60;;
7529;SDS011;3806;52.270;10.544;2024-01-15T10:26:29;4.28;;;1.33;;
7529;SDS011;3806;52.270;10.544;2024-01-15T10:28:56;4.63;;;1.90;;
7529;SDS011;3806;52.270;10.544;2024-01-15T10:31:23;6.32;;;2.42;;
7529;SDS011;3806;52.270;10.544;2024-01-15T10:33:50;6.78;;;2.22;;
7529;SDS011;3806;52.270;10.544;2024-01-15T10:36:16;5.40;;;1.88;;
7529;SDS011;3806;52.270;10.544;2024-01-15T10:38:43;4.80;;;1.92;;
7529;SDS011;3806;52.270;10.544;2024-01-15T10:41:09;3.05;;;1.70;;
7529;SDS011;3806;52.270;10.544;2024-01-15T10:43:34;5.32;;;1.65;;
7529;SDS011;3806;52.270;10.544;2024-01-15T10:46:00;3.20;;;1.67;;
7529;SDS011;3806;52.270;10.544;2024-01-15T10:48:27;3.70;;;1.20;;
7529;SDS011;3806;52.270;10.544;2024-01-15T10:50:55;2.22;;;1.80;;
7529;SDS011;3806;52.270;10.544;2024-01-15T10:53:22;4.75;;;1.25;;
7529;SDS011;3806;52.270;10.544;2024-01-15T10:55:48;2.65;;;1.40;;
7529;SDS011;3806;52.270;10.544;2024-01-15T10:58:16;4.55;;;1.45;;
7529;SDS011;3806;52.270;10.544;2024-01-15T11:00:43;2.50;;;0.98;;
7529;SDS011;3806;52.270;10.544;2024-01-15T11:03:09;5.95;;;1.88;;
7529;SDS011;3806;52.270;10.544;2024-01-15T11:05:38;2.15;;;1.50;;
7529;SDS011;3806;52.270;10.544;2024-01-15T11:08:07;3.00;;;1.13;;
7529;SDS011;3806;52.270;10.544;2024-01-15T11:13:14;4.03;;;1.38;;
7529;SDS011;3806;52.270;10.544;2024-01-15T11:15:59;1.60;;;0.88;;
7529;SDS011;3806;52.270;10.544;2024-01-15T11:19:08;2.60;;;1.10;;
7529;SDS011;3806;52.270;10.544;2024-01-15T11:21:24;1.23;;;1.08;;
7529;SDS011;3806;52.270;10.544;2024-01-15T11:23:53;3.30;;;1.50;;
7529;SDS011;3806;52.270;10.544;2024-01-15T11:26:33;1.88;;;1.13;;
7529;SDS011;3806;52.270;10.544;2024-01-15T11:29:04;12.35;;;2.00;;
7529;SDS011;3806;52.270;10.544;2024-01-15T11:34:09;6.53;;;1.23;;
7529;SDS011;3806;52.270;10.544;2024-01-15T11:41:59;2.72;;;1.15;;
7529;SDS011;3806;52.270;10.544;2024-01-15T11:44:26;2.63;;;1.35;;
7529;SDS011;3806;52.270;10.544;2024-01-15T11:47:02;33.95;;;6.18;;
7529;SDS011;3806;52.270;10.544;2024-01-15T11:57:31;1.25;;;1.00;;
7529;SDS011;3806;52.270;10.544;2024-01-15T12:00:05;3.55;;;1.48;;
7529;SDS011;3806;52.270;10.544;2024-01-15T12:02:33;6.72;;;1.45;;
7529;SDS011;3806;52.270;10.544;2024-01-15T12:04:59;4.78;;;1.40;;
7529;SDS011;3806;52.270;10.544;2024-01-15T12:07:25;2.90;;;1.52;;
7529;SDS011;3806;52.270;10.544;2024-01-15T12:09:50;3.85;;;1.15;;
7529;SDS011;3806;52.270;10.544;2024-01-15T12:12:24;2.33;;;1.00;;
7529;SDS011;3806;52.270;10.544;2024-01-15T12:15:09;2.83;;;0.93;;
7529;SDS011;3806;52.270;10.544;2024-01-15T12:17:35;4.15;;;1.33;;
7529;SDS011;3806;52.270;10.544;2024-01-15T12:20:02;4.00;;;1.55;;
7529;SDS011;3806;52.270;10.544;2024-01-15T12:22:31;2.50;;;1.13;;
7529;SDS011;3806;52.270;10.544;2024-01-15T12:24:59;1.23;;;0.93;;
7529;SDS011;3806;52.270;10.544;2024-01-15T12:30:10;1.33;;;0.80;;
7529;SDS011;3806;52.270;10.544;2024-01-15T12:33:17;0.65;;;0.63;;
7529;SDS011;3806;52.270;10.544;2024-01-15T12:35:49;1.95;;;0.60;;
7529;SDS011;3806;52.270;10.544;2024-01-15T12:38:21;2.70;;;1.35;;
7529;SDS011;3806;52.270;10.544;2024-01-15T12:40:47;1.70;;;0.90;;
7529;SDS011;3806;52.270;10.544;2024-01-15T12:43:13;2.15;;;1.00;;
7529;SDS011;3806;52.270;10.544;2024-01-15T12:45:39;1.13;;;1.05;;
7529;SDS011;3806;52.270;10.544;2024-01-15T12:48:05;2.05;;;1.45;;
7529;SDS011;3806;52.270;10.544;2024-01-15T12:50:33;4.90;;;2.30;;
7529;SDS011;3806;52.270;10.544;2024-01-15T12:52:58;3.05;;;1.23;;
7529;SDS011;3806;52.270;10.544;2024-01-15T12:55:27;5.35;;;1.48;;
7529;SDS011;3806;52.270;10.544;2024-01-15T12:57:52;5.25;;;1.40;;
7529;SDS011;3806;52.270;10.544;2024-01-15T13:00:19;2.20;;;1.17;;
7529;SDS011;3806;52.270;10.544;2024-01-15T13:02:45;5.22;;;1.40;;
7529;SDS011;3806;52.270;10.544;2024-01-15T13:05:11;5.57;;;1.38;;
7529;SDS011;3806;52.270;10.544;2024-01-15T13:07:37;5.75;;;1.27;;
7529;SDS011;3806;52.270;10.544;2024-01-15T13:10:03;1.85;;;1.05;;
7529;SDS011;3806;52.270;10.544;2024-01-15T13:12:29;1.88;;;1.20;;
7529;SDS011;3806;52.270;10.544;2024-01-15T13:14:55;3.30;;;1.20;;
7529;SDS011;3806;52.270;10.544;2024-01-15T13:17:23;4.07;;;1.75;;
7529;SDS011;3806;52.270;10.544;2024-01-15T13:19:48;4.65;;;1.40;;
7529;SDS011;3806;52.270;10.544;2024-01-15T13:22:14;9.85;;;1.50;;
7529;SDS011;3806;52.270;10.544;2024-01-15T13:24:40;6.30;;;3.00;;
7529;SDS011;3806;52.270;10.544;2024-01-15T13:27:06;4.38;;;1.83;;
7529;SDS011;3806;52.270;10.544;2024-01-15T13:29:32;3.80;;;1.80;;
7529;SDS011;3806;52.270;10.544;2024-01-15T13:31:58;2.65;;;1.30;;
7529;SDS011;3806;52.270;10.544;2024-01-15T13:34:24;1.92;;;1.23;;
7529;SDS011;3806;52.270;10.544;2024-01-15T13:36:50;5.50;;;1.58;;
7529;SDS011;3806;52.270;10.544;2024-01-15T13:39:15;2.28;;;1.33;;
7529;SDS011;3806;52.270;10.544;2024-01-15T13:41:45;2.05;;;1.10;;
7529;SDS011;3806;52.270;10.544;2024-01-15T13:44:13;4.78;;;1.42;;
7529;SDS011;3806;52.270;10.544;2024-01-15T13:46:39;4.70;;;1.88;;
7529;SDS011;3806;52.270;10.544;2024-01-15T13:49:04;3.22;;;1.15;;
7529;SDS011;3806;52.270;10.544;2024-01-15T13:51:31;5.10;;;1.20;;
7529;SDS011;3806;52.270;10.544;2024-01-15T13:53:57;3.65;;;1.70;;
7529;SDS011;3806;52.270;10.544;2024-01-15T13:56:22;4.28;;;1.15;;
7529;SDS011;3806;52.270;10.544;2024-01-15T13:58:48;3.10;;;1.08;;
7529;SDS011;3806;52.270;10.544;2024-01-15T14:01:14;1.00;;;0.90;;
7529;SDS011;3806;52.270;10.544;2024-01-15T14:03:40;2.60;;;1.30;;
7529;SDS011;3806;52.270;10.544;2024-01-15T14:06:06;4.82;;;1.73;;
7529;SDS011;3806;52.270;10.544;2024-01-15T14:08:34;3.97;;;1.40;;
7529;SDS011;3806;52.270;10.544;2024-01-15T14:11:01;6.70;;;1.20;;
7529;SDS011;3806;52.270;10.544;2024-01-15T14:13:27;1.52;;;0.93;;
7529;SDS011;3806;52.270;10.544;2024-01-15T14:15:53;3.58;;;1.38;;
7529;SDS011;3806;52.270;10.544;2024-01-15T14:18:18;1.58;;;0.88;;
7529;SDS011;3806;52.270;10.544;2024-01-15T14:20:44;4.00;;;1.35;;
7529;SDS011;3806;52.270;10.544;2024-01-15T14:23:10;9.00;;;1.55;;
7529;SDS011;3806;52.270;10.544;2024-01-15T14:25:35;5.43;;;1.60;;
7529;SDS011;3806;52.270;10.544;2024-01-15T14:28:01;4.63;;;1.90;;
7529;SDS011;3806;52.270;10.544;2024-01-15T14:30:26;4.20;;;1.30;;
7529;SDS011;3806;52.270;10.544;2024-01-15T14:32:55;3.55;;;1.00;;
7529;SDS011;3806;52.270;10.544;2024-01-15T14:37:55;7.43;;;1.40;;
7529;SDS011;3806;52.270;10.544;2024-01-15T14:40:25;2.88;;;1.38;;
7529;SDS011;3806;52.270;10.544;2024-01-15T14:42:52;5.30;;;1.55;;
7529;SDS011;3806;52.270;10.544;2024-01-15T14:45:20;3.05;;;1.17;;
7529;SDS011;3806;52.270;10.544;2024-01-15T14:47:47;4.35;;;1.13;;
7529;SDS011;3806;52.270;10.544;2024-01-15T14:50:13;4.18;;;1.15;;
7529;SDS011;3806;52.270;10.544;2024-01-15T14:52:42;6.03;;;2.92;;
7529;SDS011;3806;52.270;10.544;2024-01-15T14:55:15;8.70;;;1.30;;
7529;SDS011;3806;52.270;10.544;2024-01-15T14:57:49;2.47;;;0.95;;
7529;SDS011;3806;52.270;10.544;2024-01-15T15:00:19;5.43;;;1.23;;
7529;SDS011;3806;52.270;10.544;2024-01-15T15:02:47;5.43;;;1.67;;
7529;SDS011;3806;52.270;10.544;2024-01-15T15:05:15;2.70;;;1.25;;
7529;SDS011;3806;52.270;10.544;2024-01-15T15:07:43;2.97;;;1.20;;
7529;SDS011;3806;52.270;10.544;2024-01-15T15:10:09;1.83;;;1.50;;
7529;SDS011;3806;52.270;10.544;2024-01-15T15:12:40;3.65;;;1.38;;
7529;SDS011;3806;52.270;10.544;2024-01-15T15:15:22;3.33;;;1.35;;
7529;SDS011;3806;52.270;10.544;2024-01-15T15:17:50;5.68;;;1.45;;
7529;SDS011;3806;52.270;10.544;2024-01-15T15:20:16;4.38;;;1.63;;
7529;SDS011;3806;52.270;10.544;2024-01-15T15:22:42;2.13;;;1.30;;